Time;durP1;ratioP1;P1;durP2;ratioP2;P2;SDS_P1;SDS_P2;PMS_P1;PMS_P2;Temp;Humidity;BMP_temperature;BMP_pressure;BME280_temperature;BME280_humidity;BME280_pressure;Samples;Min_cycle;Max_cycle;Signal;HPM_P1;HPM_P2
2022/11/05 00:09:41;;;;;;;9.77;2.70;;;;;;;7.75;100.00;101423.69;5032474;28;20079;-43
2022/11/05 00:17:39;;;;;;;12.23;3.00;;;;;;;7.67;100.00;101429.78;5033002;28;20040;-43
2022/11/05 00:20:05;;;;;;;10.32;2.55;;;;;;;7.65;100.00;101429.91;5032550;28;20033;-43
2022/11/05 00:25:18;;;;;;;8.93;3.08;;;;;;;7.69;100.00;101439.34;5032857;28;20530;-43
2022/11/05 00:27:48;;;;;;;14.63;3.42;;;;;;;7.68;100.00;101443.00;5029486;28;20025;-43
2022/11/05 00:30:19;;;;;;;11.07;2.78;;;;;;;7.64;100.00;101446.16;5032835;28;20112;-43
2022/11/05 00:32:46;;;;;;;11.23;3.13;;;;;;;7.62;100.00;101446.28;5001840;28;20125;-43
2022/11/05 00:35:11;;;;;;;14.30;3.30;;;;;;;7.57;100.00;101453.09;5030745;28;20022;-43
2022/11/05 00:37:37;;;;;;;16.90;3.20;;;;;;;7.51;100.00;101451.84;5030308;28;20044;-43
2022/11/05 00:40:03;;;;;;;13.68;2.80;;;;;;;7.46;100.00;101463.00;5031172;28;20033;-43
2022/11/05 00:45:12;;;;;;;15.15;2.58;;;;;;;7.40;100.00;101454.72;5032351;28;20056;-43
2022/11/05 00:50:22;;;;;;;9.50;2.85;;;;;;;7.43;100.00;101451.75;5026530;28;20044;-43
2022/11/05 00:52:54;;;;;;;10.35;2.95;;;;;;;7.40;100.00;101460.91;5032657;28;20037;-44
2022/11/05 00:55:20;;;;;;;10.90;2.42;;;;;;;7.40;100.00;101460.91;5031419;28;20427;-43
2022/11/05 00:57:46;;;;;;;10.07;2.50;;;;;;;7.37;100.00;101463.88;5031829;28;20379;-44
2022/11/05 01:00:12;;;;;;;8.50;2.63;;;;;;;7.37;100.00;101469.25;5029839;28;20025;-42
2022/11/05 01:02:37;;;;;;;9.45;2.20;;;;;;;7.39;100.00;101466.41;5030365;28;20034;-43
2022/11/05 01:05:03;;;;;;;10.57;2.28;;;;;;;7.39;100.00;101461.03;5031260;28;20111;-43
2022/11/05 01:07:28;;;;;;;15.60;3.13;;;;;;;7.37;100.00;101463.00;5030135;28;20044;-43
2022/11/05 01:09:54;;;;;;;10.07;2.30;;;;;;;7.31;100.00;101461.78;5033218;28;20498;-43
2022/11/05 01:12:20;;;;;;;11.15;2.30;;;;;;;7.27;100.00;101463.06;5033019;28;20112;-43
2022/11/05 01:14:46;;;;;;;5.53;2.25;;;;;;;7.18;100.00;101448.69;5028740;28;20045;-43
2022/11/05 01:17:12;;;;;;;4.97;2.10;;;;;;;7.14;100.00;101451.81;5029902;28;20091;-43
2022/11/05 01:19:38;;;;;;;8.63;2.42;;;;;;;7.06;100.00;101444.50;5031959;28;20028;-43
2022/11/05 01:22:03;;;;;;;13.82;2.80;;;;;;;6.99;100.00;101441.56;5031022;28;20133;-43
2022/11/05 01:24:29;;;;;;;6.25;1.83;;;;;;;6.95;100.00;101452.69;5031412;28;20041;-43
2022/11/05 01:26:54;;;;;;;4.25;1.67;;;;;;;6.89;100.00;101458.63;5031302;28;20049;-44
2022/11/05 01:29:19;;;;;;;9.77;2.30;;;;;;;6.85;100.00;101457.22;5030594;28;20300;-43
2022/11/05 01:31:45;;;;;;;6.30;2.13;;;;;;;6.81;100.00;101460.16;5031626;28;20083;-43
2022/11/05 01:34:10;;;;;;;7.45;2.00;;;;;;;6.78;100.00;101457.78;5030852;28;20120;-43
2022/11/05 01:36:35;;;;;;;5.32;1.77;;;;;;;6.78;100.00;101457.78;5032419;28;20044;-43
2022/11/05 01:39:01;;;;;;;8.73;2.15;;;;;;;6.79;100.00;101454.13;5031489;28;20079;-43
2022/11/05 01:41:27;;;;;;;8.95;1.60;;;;;;;6.85;100.00;101457.22;5031764;28;20376;-44
2022/11/05 01:43:58;;;;;;;6.70;1.60;;;;;;;6.88;100.00;101464.97;5031938;28;20030;-44
2022/11/05 01:46:29;;;;;;;6.07;2.28;;;;;;;6.92;100.00;101469.03;5032796;28;20038;-42
2022/11/05 01:48:56;;;;;;;4.63;1.52;;;;;;;6.98;100.00;101460.44;5032236;28;20084;-44
2022/11/05 01:51:24;;;;;;;12.13;1.75;;;;;;;7.03;100.00;101463.53;5032578;28;20418;-44
2022/11/05 01:53:59;;;;;;;8.90;1.90;;;;;;;7.10;100.00;101466.47;5030739;28;20471;-44
2022/11/05 01:56:29;;;;;;;9.45;1.55;;;;;;;7.17;100.00;101471.13;5030718;28;20026;-43
2022/11/05 01:59:03;;;;;;;6.72;1.80;;;;;;;7.28;100.00;101466.59;5030461;28;20033;-44
2022/11/05 02:01:28;;;;;;;5.90;1.52;;;;;;;7.37;100.00;101463.88;5031846;28;20456;-43
2022/11/05 02:03:57;;;;;;;7.43;1.70;;;;;;;7.51;100.00;101465.25;5031508;28;20049;-44
2022/11/05 02:06:22;;;;;;;11.07;1.50;;;;;;;7.61;100.00;101466.06;5031281;28;20038;-44
2022/11/05 02:08:54;;;;;;;12.30;1.58;;;;;;;7.69;100.00;101468.84;5031095;28;20030;-44
2022/11/05 02:11:19;;;;;;;6.20;1.63;;;;;;;7.79;100.00;101466.09;5031372;28;20025;-43
2022/11/05 02:13:46;;;;;;;3.60;1.58;;;;;;;7.92;100.00;101471.09;5030164;28;20449;-44
2022/11/05 02:16:20;;;;;;;15.02;2.67;;;;;;;7.89;100.00;101464.19;5030428;28;20037;-43
2022/11/05 02:18:49;;;;;;;4.20;1.60;;;;;;;7.92;100.00;101473.78;5030710;28;20325;-43
2022/11/05 02:21:20;;;;;;;7.03;1.40;;;;;;;7.95;100.00;101468.13;5030179;28;20026;-43
2022/11/05 02:23:53;;;;;;;5.97;1.27;;;;;;;7.98;100.00;101467.84;5030472;28;20031;-43
2022/11/05 02:26:38;;;;;;;3.10;1.20;;;;;;;7.95;100.00;101468.13;5028896;28;20379;-43
2022/11/05 02:29:30;;;;;;;4.32;1.30;;;;;;;7.93;100.00;101463.94;5030786;28;20105;-42
2022/11/05 02:32:17;;;;;;;6.10;1.30;;;;;;;7.96;100.00;101459.09;5018844;28;20044;-43
2022/11/05 02:35:14;;;;;;;2.83;1.30;;;;;;;7.96;100.00;101461.78;5029026;28;20120;-44
2022/11/05 02:37:47;;;;;;;2.00;0.97;;;;;;;7.96;100.00;101463.63;5029820;28;20697;-43
2022/11/05 02:40:18;;;;;;;2.88;1.65;;;;;;;7.97;100.00;101470.66;5013284;28;20372;-43
2022/11/05 02:42:57;;;;;;;3.88;1.35;;;;;;;8.01;100.00;101477.44;5029607;28;20040;-44
2022/11/05 02:45:39;;;;;;;8.02;2.10;;;;;;;7.99;100.00;101488.28;5030273;28;20033;-44
2022/11/05 02:48:27;;;;;;;9.75;1.95;;;;;;;8.01;100.00;101480.94;5025594;28;20041;-42
2022/11/05 02:51:04;;;;;;;12.45;2.78;;;;;;;7.90;100.00;101478.47;5017180;28;20605;-43
2022/11/05 02:53:40;;;;;;;7.68;2.08;;;;;;;7.77;100.00;101470.78;5024477;28;20445;-40
2022/11/05 02:56:10;;;;;;;8.10;1.85;;;;;;;7.66;100.00;101470.94;5031316;28;20037;-43
2022/11/05 02:58:35;;;;;;;8.30;1.90;;;;;;;7.58;100.00;101469.03;5030227;28;20034;-46
2022/11/05 03:01:05;;;;;;;17.30;2.40;;;;;;;7.56;100.00;101464.81;5028700;28;20070;-45
2022/11/05 03:03:35;;;;;;;8.55;2.20;;;;;;;7.56;100.00;101468.31;5030549;28;20025;-45
2022/11/05 03:06:22;;;;;;;6.68;2.03;;;;;;;7.58;100.00;101468.16;5029665;28;20040;-43
2022/11/05 03:09:10;;;;;;;8.30;2.40;;;;;;;7.59;100.00;101468.03;5030100;28;20034;-44
2022/11/05 03:11:48;;;;;;;6.82;2.42;;;;;;;7.62;100.00;101469.56;5029189;28;20291;-44
2022/11/05 03:14:25;;;;;;;8.98;2.47;;;;;;;7.61;100.00;101476.75;5030798;28;20057;-43
2022/11/05 03:17:12;;;;;;;9.32;2.20;;;;;;;7.58;100.00;101466.34;5031090;28;20095;-43
2022/11/05 03:19:48;;;;;;;11.40;2.92;;;;;;;7.56;100.00;101471.00;5029509;28;20038;-43
2022/11/05 03:22:22;;;;;;;6.75;2.45;;;;;;;7.51;100.00;101473.28;5029320;28;20033;-43
2022/11/05 03:24:52;;;;;;;8.20;2.33;;;;;;;7.44;100.00;101472.16;5029375;28;20372;-43
2022/11/05 03:27:22;;;;;;;7.97;2.42;;;;;;;7.38;100.00;101472.75;5028713;28;20040;-44
2022/11/05 03:30:05;;;;;;;11.73;2.60;;;;;;;7.30;100.00;101475.31;5028307;28;20032;-43
2022/11/05 03:32:33;;;;;;;7.72;2.63;;;;;;;7.29;100.00;101478.97;5028280;28;20033;-42
2022/11/05 03:35:06;;;;;;;10.13;3.33;;;;;;;7.28;100.00;101477.28;5029347;28;20034;-44
2022/11/05 03:37:35;;;;;;;11.27;3.35;;;;;;;7.29;100.00;101476.28;5011080;28;20087;-43
2022/11/05 03:40:03;;;;;;;7.05;3.30;;;;;;;7.31;100.00;101487.72;5030627;28;20060;-44
2022/11/05 03:42:31;;;;;;;4.60;3.00;;;;;;;7.34;100.00;101490.09;5028854;28;20434;-44
2022/11/05 03:44:59;;;;;;;12.82;3.20;;;;;;;7.34;100.00;101492.75;5010037;28;20065;-44
2022/11/05 03:47:31;;;;;;;7.65;3.47;;;;;;;7.36;100.00;101490.78;5027641;28;20392;-44
2022/11/05 03:50:19;;;;;;;15.35;3.22;;;;;;;7.36;100.00;101490.78;5029465;28;20043;-43
2022/11/05 03:52:46;;;;;;;;;;;;;;;7.34;100.00;101484.72;5029501;28;20507;-45
2022/11/05 03:55:11;;;;;;;7.60;3.20;;;;;;;7.30;100.00;101486.03;5029334;28;19966;-44
2022/11/05 03:57:40;;;;;;;10.38;3.20;;;;;;;7.26;100.00;101488.13;5030695;28;20430;-45
2022/11/05 04:00:08;;;;;;;9.35;3.42;;;;;;;7.18;100.00;101493.38;5028501;28;20290;-44
2022/11/05 04:02:33;;;;;;;7.40;3.30;;;;;;;7.14;100.00;101495.50;5029265;28;20408;-45
2022/11/05 04:04:59;;;;;;;5.75;3.47;;;;;;;7.09;100.00;101491.56;5028000;28;20032;-44
2022/11/05 04:18:20;;;;;;;5.80;2.88;;;;;;;6.93;100.00;101501.00;5027865;28;20048;-44
2022/11/05 04:26:14;;;;;;;3.33;2.90;;;;;;;6.85;100.00;101505.41;5028551;28;20411;-45
2022/11/05 04:31:26;;;;;;;4.95;2.97;;;;;;;6.88;100.00;101510.47;5028790;28;20040;-45
2022/11/05 04:33:51;;;;;;;6.93;3.00;;;;;;;6.88;100.00;101510.47;5028349;28;20160;-45
2022/11/05 04:36:18;;;;;;;10.10;3.58;;;;;;;6.89;100.00;101506.78;5028423;28;20049;-44
2022/11/05 04:38:43;;;;;;;5.03;3.20;;;;;;;6.89;100.00;101509.47;5028970;28;20490;-45
2022/11/05 04:41:16;;;;;;;4.10;2.90;;;;;;;6.88;100.00;101513.13;5028628;28;20033;-45
2022/11/05 04:43:42;;;;;;;6.97;2.58;;;;;;;6.90;100.00;101513.81;5028143;28;20017;-45
2022/11/05 04:46:07;;;;;;;9.35;2.67;;;;;;;6.93;100.00;101513.56;5028536;28;21828;-45
2022/11/05 04:48:33;;;;;;;9.82;2.92;;;;;;;6.96;100.00;101515.94;5030411;28;20108;-44
2022/11/05 04:50:59;;;;;;;5.18;2.85;;;;;;;7.02;100.00;101512.69;5030543;28;20094;-45
2022/11/05 04:53:24;;;;;;;7.22;3.05;;;;;;;7.07;100.00;101515.78;5029230;28;20036;-44
2022/11/05 04:55:51;;;;;;;7.97;2.55;;;;;;;7.14;100.00;101524.94;5029999;28;20033;-45
2022/11/05 04:58:16;;;;;;;5.93;2.97;;;;;;;7.18;100.00;101523.66;5029604;28;20037;-44
2022/11/05 05:00:42;;;;;;;4.50;2.83;;;;;;;7.21;100.00;101518.03;5025751;28;20037;-44
2022/11/05 05:03:07;;;;;;;6.70;2.13;;;;;;;7.26;100.00;101520.25;5029147;28;20033;-44
2022/11/05 05:05:32;;;;;;;7.28;2.00;;;;;;;7.26;100.00;101526.44;5027968;28;20479;-44
2022/11/05 05:08:05;;;;;;;5.60;1.70;;;;;;;7.32;100.00;101518.84;5029094;28;20036;-45
2022/11/05 05:10:31;;;;;;;6.10;2.10;;;;;;;7.35;100.00;101513.22;5028145;28;20021;-45
2022/11/05 05:12:56;;;;;;;5.63;1.92;;;;;;;7.37;100.00;101514.75;5029438;28;20499;-44
2022/11/05 05:15:22;;;;;;;8.35;2.05;;;;;;;7.37;100.00;101511.22;5027552;28;20140;-44
2022/11/05 05:17:55;;;;;;;6.38;1.92;;;;;;;7.38;100.00;101518.28;5029890;28;20051;-44
2022/11/05 05:23:09;;;;;;;5.22;1.85;;;;;;;7.36;100.00;101515.72;5003918;28;20049;-44
2022/11/05 05:25:34;;;;;;;9.05;2.00;;;;;;;7.33;100.00;101508.00;5029710;28;20590;-45
2022/11/05 05:27:59;;;;;;;4.53;2.08;;;;;;;7.35;100.00;101502.50;5030931;28;20539;-45
2022/11/05 05:30:25;;;;;;;5.70;2.47;;;;;;;7.33;100.00;101499.97;5029302;28;20025;-44
2022/11/05 05:32:54;;;;;;;6.68;1.90;;;;;;;7.32;100.00;101508.13;5026962;28;20399;-44
2022/11/05 05:35:22;;;;;;;5.45;2.17;;;;;;;7.28;100.00;101509.41;5027838;28;20579;-44
2022/11/05 05:37:48;;;;;;;6.45;2.00;;;;;;;7.27;100.00;101508.59;5025807;28;20057;-45
2022/11/05 05:40:13;;;;;;;5.65;2.28;;;;;;;7.23;100.00;101504.50;5028232;28;20155;-44
2022/11/05 05:42:39;;;;;;;6.75;2.47;;;;;;;7.20;100.00;101505.63;5025600;28;20033;-45
2022/11/05 05:45:04;;;;;;;6.30;2.40;;;;;;;7.21;100.00;101517.16;5029299;28;20091;-44
2022/11/05 05:47:30;;;;;;;6.55;2.60;;;;;;;7.21;100.00;101510.00;5027622;28;20099;-44
2022/11/05 05:49:55;;;;;;;7.70;2.80;;;;;;;7.22;100.00;101503.66;5029174;28;20495;-44
2022/11/05 05:52:20;;;;;;;12.02;3.17;;;;;;;7.22;100.00;101511.69;5029062;28;20560;-44
2022/11/05 05:54:46;;;;;;;7.65;2.38;;;;;;;7.22;100.00;101516.19;5028913;28;20815;-45
2022/11/05 05:57:11;;;;;;;6.45;2.58;;;;;;;7.20;100.00;101521.69;5029162;28;20025;-44
2022/11/05 05:59:36;;;;;;;6.45;3.20;;;;;;;7.16;100.00;101524.78;5028785;28;20099;-45
2022/11/05 06:02:02;;;;;;;9.20;2.70;;;;;;;7.12;100.00;101529.59;5029696;28;20451;-44
2022/11/05 06:04:27;;;;;;;9.80;3.38;;;;;;;7.06;100.00;101530.16;5027319;28;20041;-44
2022/11/05 06:06:53;;;;;;;9.45;3.63;;;;;;;7.03;100.00;101525.94;5027367;28;20061;-45
2022/11/05 06:09:18;;;;;;;6.32;3.45;;;;;;;7.07;100.00;101534.53;5028027;28;20026;-44
2022/11/05 06:11:43;;;;;;;12.38;3.80;;;;;;;7.05;100.00;101525.78;5027644;28;20419;-45
2022/11/05 06:14:12;;;;;;;8.80;3.70;;;;;;;7.07;100.00;101531.00;5028407;28;20372;-45
2022/11/05 06:16:38;;;;;;;9.70;4.55;;;;;;;7.09;100.00;101539.75;5028696;28;20029;-44
2022/11/05 06:19:05;;;;;;;16.17;5.00;;;;;;;7.16;100.00;101530.13;5027348;28;20037;-45
2022/11/05 06:21:30;;;;;;;15.77;4.63;;;;;;;7.19;100.00;101530.72;5023910;28;20037;-45
2022/11/05 06:23:56;;;;;;;17.52;5.10;;;;;;;7.25;100.00;101540.84;5028379;28;20048;-44
2022/11/05 06:26:21;;;;;;;24.05;5.55;;;;;;;7.30;100.00;101539.56;5028220;28;20076;-45
2022/11/05 06:28:46;;;;;;;14.77;5.57;;;;;;;7.35;100.00;101540.84;5027732;28;20452;-44
2022/11/05 06:31:13;;;;;;;21.40;5.63;;;;;;;7.38;100.00;101550.41;5028687;28;20094;-44
2022/11/05 06:33:39;;;;;;;10.88;5.53;;;;;;;7.43;100.00;101545.47;5028922;28;20034;-45
2022/11/05 06:36:05;;;;;;;20.02;6.55;;;;;;;7.45;100.00;101551.50;5027467;28;20063;-44
2022/11/05 06:38:32;;;;;;;17.30;6.72;;;;;;;7.49;100.00;101552.91;5030259;28;20026;-45
2022/11/05 06:40:58;;;;;;;18.83;6.80;;;;;;;7.48;100.00;101556.59;5018096;28;20092;-44
2022/11/05 06:43:23;;;;;;;15.60;6.57;;;;;;;7.50;100.00;101554.59;5011044;28;20432;-45
2022/11/05 06:45:49;;;;;;;28.10;7.07;;;;;;;7.48;100.00;101554.75;5011988;28;20549;-44
2022/11/05 06:48:14;;;;;;;18.50;6.10;;;;;;;7.46;100.00;101554.06;5021812;28;20035;-44
2022/11/05 06:50:43;;;;;;;20.58;6.40;;;;;;;7.45;100.00;101557.72;5022176;28;20135;-45
2022/11/05 06:53:08;;;;;;;14.77;6.53;;;;;;;7.45;100.00;101556.88;5010715;28;20034;-45
2022/11/05 06:55:33;;;;;;;21.70;6.97;;;;;;;7.41;100.00;101558.16;5021931;28;20033;-45
2022/11/05 06:57:59;;;;;;;13.50;6.07;;;;;;;7.43;100.00;101564.22;5026796;28;20037;-45
2022/11/05 07:00:24;;;;;;;20.98;7.55;;;;;;;7.45;100.00;101556.88;5025033;28;20034;-45
2022/11/05 07:02:50;;;;;;;12.27;7.72;;;;;;;7.44;100.00;101565.91;5015931;28;20026;-44
2022/11/05 07:05:16;;;;;;;21.50;8.18;;;;;;;7.48;100.00;101568.16;5004595;28;20368;-44
2022/11/05 07:07:42;;;;;;;20.33;7.65;;;;;;;7.51;100.00;101564.34;5021124;28;20167;-44
2022/11/05 07:10:11;;;;;;;24.25;8.23;;;;;;;7.58;100.00;101570.81;5027109;28;20616;-44
2022/11/05 07:12:36;;;;;;;19.33;8.27;;;;;;;7.63;100.00;101571.19;5007951;28;20038;-44
2022/11/05 07:15:03;;;;;;;24.13;7.50;;;;;;;7.63;100.00;101565.84;5010886;28;20104;-44
2022/11/05 07:17:28;;;;;;;19.20;7.97;;;;;;;7.67;100.00;101572.63;5020215;28;20048;-44
2022/11/05 07:19:53;;;;;;;24.25;7.95;;;;;;;7.68;100.00;101563.56;5012966;28;20025;-45
2022/11/05 07:22:19;;;;;;;22.17;8.00;;;;;;;7.69;100.00;101573.31;5006266;28;20464;-44
2022/11/05 07:24:46;;;;;;;19.17;7.70;;;;;;;7.67;100.00;101574.47;5024005;28;20030;-44
2022/11/05 07:27:12;;;;;;;16.02;7.60;;;;;;;7.63;100.00;101570.38;5015698;28;20041;-44
2022/11/05 07:29:37;;;;;;;16.73;7.35;;;;;;;7.65;100.00;101569.22;5021404;28;20091;-45
2022/11/05 07:32:02;;;;;;;15.60;7.18;;;;;;;7.64;100.00;101561.34;5020196;28;20037;-44
2022/11/05 07:34:28;;;;;;;14.75;7.20;;;;;;;7.68;100.00;101568.09;5026229;28;20033;-44
2022/11/05 07:36:55;;;;;;;25.52;9.15;;;;;;;7.69;100.00;101565.28;5029292;28;20080;-44
2022/11/05 07:39:20;;;;;;;27.95;8.88;;;;;;;7.67;100.00;101566.41;5029618;28;20104;-43
2022/11/05 07:41:45;;;;;;;18.58;7.35;;;;;;;7.67;100.00;101569.09;5027951;28;20029;-44
2022/11/05 07:44:13;;;;;;;14.98;6.85;;;;;;;7.66;100.00;101570.06;5031101;28;20045;-44
2022/11/05 07:46:39;;;;;;;13.23;6.85;;;;;;;7.61;100.00;101565.16;5028911;28;20642;-44
2022/11/05 07:49:05;;;;;;;18.20;7.35;;;;;;;7.61;100.00;101567.84;5030361;28;20061;-43
2022/11/05 07:51:30;;;;;;;24.45;7.78;;;;;;;7.62;100.00;101566.84;5029091;28;20048;-45
2022/11/05 07:53:55;;;;;;;19.70;7.38;;;;;;;7.60;100.00;101560.78;5030740;28;20029;-45
2022/11/05 07:56:21;;;;;;;24.42;7.47;;;;;;;7.62;100.00;101572.19;5030809;28;20704;-45
2022/11/05 07:58:46;;;;;;;17.00;7.13;;;;;;;7.65;100.00;101566.56;5030984;28;20049;-43
2022/11/05 08:01:11;;;;;;;17.88;7.43;;;;;;;7.70;100.00;101566.97;5030219;28;20029;-42
2022/11/05 08:03:37;;;;;;;16.35;6.85;;;;;;;7.80;100.00;101560.75;5029614;28;20036;-43
2022/11/05 08:06:02;;;;;;;19.95;7.45;;;;;;;7.87;100.00;101568.06;5026828;28;20113;-44
2022/11/05 08:08:27;;;;;;;17.80;7.63;;;;;;;8.05;100.00;101565.41;5019709;28;20038;-44
2022/11/05 08:11:06;;;;;;;16.27;6.70;;;;;;;8.13;100.00;101562.84;5028912;28;20124;-44
2022/11/05 08:13:32;;;;;;;;;;;;;;;8.16;100.00;101555.50;5030337;28;20052;-43
2022/11/05 08:15:57;;;;;;;12.52;6.43;;;;;;;8.19;100.00;101549.84;5029110;28;20383;-42
2022/11/05 08:18:30;;;;;;;18.52;7.30;;;;;;;8.20;100.00;101562.28;5030053;28;20048;-43
2022/11/05 08:20:59;;;;;;;20.67;7.20;;;;;;;8.24;100.00;101560.97;5022378;28;20030;-43
2022/11/05 08:23:26;;;;;;;19.80;6.97;;;;;;;8.29;100.00;101558.69;5030814;28;20084;-43
2022/11/05 08:25:51;;;;;;;14.35;6.85;;;;;;;8.31;100.00;101551.34;5033899;28;20036;-44
2022/11/05 08:28:18;;;;;;;19.02;6.20;;;;;;;8.80;100.00;101557.28;5025671;28;20022;-43
2022/11/05 08:30:47;;;;;;;16.50;6.28;;;;;;;9.51;100.00;101559.03;5011391;28;20100;-44
2022/11/05 08:33:13;;;;;;;8.30;4.35;;;;;;;10.44;100.00;101552.97;5018230;28;20029;-43
2022/11/05 08:35:38;;;;;;;14.23;4.63;;;;;;;11.05;100.00;101543.63;5014300;28;20087;-44
2022/11/05 08:38:05;;;;;;;12.68;4.40;;;;;;;11.68;100.00;101543.94;5007998;28;20029;-43
2022/11/05 08:40:33;;;;;;;15.17;4.37;;;;;;;11.56;98.65;101540.75;5025968;28;20040;-43
2022/11/05 08:43:01;;;;;;;12.45;3.95;;;;;;;11.54;99.00;101553.56;5024299;28;20798;-44
2022/11/05 08:45:27;;;;;;;12.52;4.22;;;;;;;11.14;100.00;101542.66;5024965;28;20124;-43
2022/11/05 08:47:59;;;;;;;9.25;4.05;;;;;;;11.04;100.00;101539.28;5025087;28;20156;-43
2022/11/05 08:50:24;;;;;;;15.68;4.68;;;;;;;10.96;100.00;101550.88;5025289;28;20025;-44
2022/11/05 08:52:49;;;;;;;8.40;3.83;;;;;;;10.79;100.00;101553.72;5024720;28;20387;-43
2022/11/05 08:55:17;;;;;;;20.40;3.85;;;;;;;10.53;100.00;101560.03;5022924;28;20333;-44
2022/11/05 08:57:44;;;;;;;9.90;3.45;;;;;;;10.57;100.00;101552.50;5019800;28;20087;-44
2022/11/05 09:00:11;;;;;;;12.00;3.67;;;;;;;10.45;100.00;101558.19;5023075;28;20033;-44
2022/11/05 09:02:36;;;;;;;25.23;4.55;;;;;;;10.35;100.00;101552.09;5020837;28;20383;-44
2022/11/05 09:05:01;;;;;;;14.57;4.20;;;;;;;10.37;100.00;101555.47;5022875;28;20100;-43
2022/11/05 09:07:27;;;;;;;11.40;3.63;;;;;;;10.29;100.00;101556.28;5023576;28;20106;-44
2022/11/05 09:09:52;;;;;;;14.75;3.50;;;;;;;10.21;100.00;101556.22;5025091;28;20111;-43
2022/11/05 09:12:17;;;;;;;12.48;3.97;;;;;;;10.08;100.00;101566.56;5023403;28;20053;-43
2022/11/05 09:14:43;;;;;;;12.30;3.80;;;;;;;10.03;100.00;101558.16;5024041;28;20087;-43
2022/11/05 09:17:16;;;;;;;10.40;4.45;;;;;;;10.02;100.00;101567.22;5020791;28;20044;-43
2022/11/05 09:19:42;;;;;;;12.43;3.65;;;;;;;10.08;100.00;101566.56;5022605;28;20052;-43
2022/11/05 09:22:11;;;;;;;9.95;3.67;;;;;;;10.30;100.00;101565.22;5024407;28;20412;-44
2022/11/05 09:24:42;;;;;;;19.17;4.07;;;;;;;10.32;100.00;101569.41;5023971;28;20033;-44
2022/11/05 09:27:09;;;;;;;12.10;3.70;;;;;;;10.31;100.00;101567.72;5023080;28;20064;-44
2022/11/05 09:29:35;;;;;;;15.80;3.78;;;;;;;10.14;100.00;101575.84;5021246;28;20025;-44
2022/11/05 09:32:00;;;;;;;12.65;3.85;;;;;;;10.06;100.00;101572.13;5021887;28;20514;-43
2022/11/05 09:34:25;;;;;;;12.77;4.70;;;;;;;10.06;100.00;101577.50;5022990;28;20051;-44
2022/11/05 09:36:51;;;;;;;18.50;4.15;;;;;;;10.03;100.00;101569.78;5027367;28;20103;-43
2022/11/05 09:39:16;;;;;;;15.88;4.00;;;;;;;10.02;100.00;101565.38;5023627;28;20026;-44
2022/11/05 09:41:45;;;;;;;10.63;3.78;;;;;;;10.06;100.00;101574.81;5034779;28;20029;-44
2022/11/05 09:44:14;;;;;;;15.30;3.83;;;;;;;10.10;100.00;101580.72;5024052;28;20021;-43
2022/11/05 09:46:43;;;;;;;9.75;3.50;;;;;;;10.09;100.00;101573.66;5029508;28;20028;-43
2022/11/05 09:49:19;;;;;;;15.95;3.33;;;;;;;10.14;100.00;101568.63;5029225;28;20064;-42
2022/11/05 09:51:45;;;;;;;9.45;3.00;;;;;;;10.21;100.00;101569.66;5027981;28;20133;-43
2022/11/05 09:54:11;;;;;;;14.48;3.75;;;;;;;10.29;100.00;101559.00;5027739;28;20515;-43
2022/11/05 09:56:39;;;;;;;12.50;3.35;;;;;;;10.33;100.00;101562.19;5027861;28;20029;-43
2022/11/05 09:59:20;;;;;;;6.93;3.17;;;;;;;10.47;100.00;101563.41;5027629;28;20367;-43
2022/11/05 10:01:46;;;;;;;12.35;2.85;;;;;;;10.55;100.00;101555.34;5026301;28;20061;-44
2022/11/05 10:04:17;;;;;;;8.82;3.17;;;;;;;10.72;99.92;101556.25;5007424;28;20113;-42
2022/11/05 10:06:54;;;;;;;11.65;3.35;;;;;;;10.82;99.07;101554.25;4991816;28;20096;-42
2022/11/05 10:09:24;;;;;;;9.70;2.80;;;;;;;10.89;98.86;101555.25;5007911;28;20049;-43
2022/11/05 10:11:53;;;;;;;11.82;3.10;;;;;;;10.92;98.99;101549.50;5008844;28;20041;-44
2022/11/05 10:14:36;;;;;;;10.60;3.05;;;;;;;10.79;98.38;101567.19;5012347;28;20342;-44
2022/11/05 10:17:16;;;;;;;8.82;3.42;;;;;;;10.66;98.89;101555.03;5028201;28;20041;-43
2022/11/05 10:19:58;;;;;;;15.93;4.13;;;;;;;10.67;99.79;101555.91;5028008;28;20025;-44
2022/11/05 10:22:24;;;;;;;9.35;3.88;;;;;;;10.61;100.00;101562.78;5027379;28;20233;-43
2022/11/05 10:24:50;;;;;;;22.25;4.25;;;;;;;10.68;100.00;101558.41;5027189;28;20078;-43
2022/11/05 10:27:33;;;;;;;10.48;3.15;;;;;;;11.21;100.00;101559.78;5026845;28;20025;-43
2022/11/05 10:29:59;;;;;;;10.60;3.70;;;;;;;11.53;96.46;101555.41;5027550;28;20025;-44
2022/11/05 10:32:28;;;;;;;12.68;3.30;;;;;;;11.78;94.96;101560.75;5028773;28;20025;-43
2022/11/05 10:34:56;;;;;;;10.32;3.53;;;;;;;11.60;94.29;101564.50;5018834;28;20033;-43
2022/11/05 10:37:22;;;;;;;15.13;4.10;;;;;;;11.54;94.42;101559.78;5014257;28;20021;-44
2022/11/05 10:39:47;;;;;;;9.30;3.38;;;;;;;11.58;93.46;101557.59;5029460;28;20387;-44
2022/11/05 10:42:31;;;;;;;7.13;2.72;;;;;;;11.73;93.09;101557.75;5013027;28;20029;-43
2022/11/05 10:45:24;;;;;;;10.77;2.80;;;;;;;11.90;92.68;101548.63;5028216;28;20226;-43
2022/11/05 10:48:04;;;;;;;10.68;2.45;;;;;;;12.03;89.27;101537.25;5028841;28;20022;-44
2022/11/05 10:50:32;;;;;;;14.60;2.47;;;;;;;11.79;88.52;101546.25;5032017;28;20037;-43
2022/11/05 10:53:01;;;;;;;10.65;2.55;;;;;;;11.84;89.12;101533.09;5032070;28;20030;-43
2022/11/05 10:55:57;;;;;;;8.20;2.17;;;;;;;11.64;88.75;101544.28;5030469;28;20013;-43
2022/11/05 10:58:27;;;;;;;12.65;2.08;;;;;;;11.47;90.41;101558.78;5031546;28;20115;-44
2022/11/05 11:00:53;;;;;;;12.25;2.20;;;;;;;11.40;90.08;101558.63;5031159;28;20483;-43
2022/11/05 11:03:37;;;;;;;5.95;2.45;;;;;;;11.53;90.19;101560.81;5031669;28;20030;-43
2022/11/05 11:06:24;;;;;;;4.47;1.80;;;;;;;11.47;89.59;101558.78;5031601;28;20066;-43
2022/11/05 11:08:51;;;;;;;10.30;1.85;;;;;;;11.51;89.87;101554.75;5031138;28;20091;-44
2022/11/05 11:11:33;;;;;;;11.73;2.78;;;;;;;11.43;89.00;101562.84;5030219;28;20021;-44
2022/11/05 11:14:02;;;;;;;7.75;2.13;;;;;;;11.51;88.69;101560.13;5029856;28;20122;-44
2022/11/05 11:16:33;;;;;;;8.10;1.98;;;;;;;11.48;87.52;101559.63;5030154;28;20025;-43
2022/11/05 11:19:00;;;;;;;9.38;2.10;;;;;;;11.49;87.80;101558.63;5031642;28;20036;-44
2022/11/05 11:21:27;;;;;;;12.20;2.08;;;;;;;11.63;88.36;101558.75;5031461;28;20125;-43
2022/11/05 11:24:03;;;;;;;7.25;1.88;;;;;;;11.62;87.53;101567.03;5031945;28;20056;-44
2022/11/05 11:26:35;;;;;;;6.50;1.80;;;;;;;11.63;87.54;101556.06;5030556;28;20044;-43
2022/11/05 11:29:03;;;;;;;7.35;1.88;;;;;;;11.50;87.44;101554.91;5013157;28;20075;-44
2022/11/05 11:31:30;;;;;;;8.65;2.20;;;;;;;11.39;87.85;101556.94;5031181;28;20041;-43
2022/11/05 11:33:58;;;;;;;8.38;1.95;;;;;;;11.31;88.25;101554.25;5021297;28;20029;-43
2022/11/05 11:36:26;;;;;;;11.52;1.92;;;;;;;11.56;89.43;101557.78;5011944;28;20045;-43
2022/11/05 11:38:58;;;;;;;10.80;2.33;;;;;;;11.70;89.59;101550.00;5011795;28;20087;-43
2022/11/05 11:41:32;;;;;;;13.85;2.10;;;;;;;11.78;88.48;101549.97;4993819;28;20033;-44
2022/11/05 11:44:13;;;;;;;5.78;1.73;;;;;;;11.63;88.18;101553.34;5013189;28;20041;-43
2022/11/05 11:46:39;;;;;;;9.20;2.05;;;;;;;11.51;87.99;101559.31;5029132;28;20372;-44
2022/11/05 11:49:06;;;;;;;10.45;2.25;;;;;;;11.29;89.58;101553.56;5020703;28;20033;-43
2022/11/05 11:51:39;;;;;;;6.00;2.00;;;;;;;11.25;90.43;101552.25;5031088;28;20108;-43
2022/11/05 11:54:05;;;;;;;10.18;2.03;;;;;;;11.20;90.65;101559.97;5029798;28;20033;-44
2022/11/05 11:56:43;;;;;;;7.80;2.28;;;;;;;11.19;91.27;101559.16;5030818;28;20021;-44
2022/11/05 11:59:22;;;;;;;10.77;2.38;;;;;;;11.16;91.69;101561.31;5033851;28;20429;-44
2022/11/05 12:02:24;;;;;;;13.52;2.47;;;;;;;11.21;91.96;101554.41;5033833;28;20526;-44
2022/11/05 12:05:10;;;;;;;6.65;1.92;;;;;;;11.16;91.23;101543.31;5035093;28;20030;-44
2022/11/05 12:07:59;;;;;;;8.50;2.83;;;;;;;11.22;91.74;101539.13;5034652;28;20455;-43
2022/11/05 12:11:00;;;;;;;9.77;2.28;;;;;;;11.23;91.94;101538.09;5035283;28;20029;-43
2022/11/05 12:13:36;;;;;;;6.65;2.10;;;;;;;11.23;92.21;101532.69;5035141;28;20037;-43